<?xml version="1.0" encoding="UTF-8" standalone="no" ?>
<gpx xmlns="http://www.topografix.com/GPX/1/1" xmlns:xsi="http://www.w3.org/2001/XMLSchema-instance" xsi:schemaLocation="http://www.topografix.com/GPX/1/1 http://www.topografix.com/GPX/1/1/gpx.xsd" version="1.1" creator="VisuGPX - https://www.visugpx.com">
  <metadata>
    <name>Prospection chemins praticables 1</name>
  </metadata>
  <trk>
    <name><![CDATA[Prospection chemins praticables 1_17]]></name>
    <trkseg>
      <trkpt lat="47.70798" lon="5.1117">
        <ele>398.42</ele>
        <time>2021-08-26T12:20:15Z</time>
      </trkpt>
      <trkpt lat="47.70793" lon="5.11182">
        <ele>398.7</ele>
        <time>2021-08-26T12:20:47Z</time>
      </trkpt>
      <trkpt lat="47.70791" lon="5.11186">
        <ele>398.73</ele>
        <time>2021-08-26T12:21:23Z</time>
      </trkpt>
      <trkpt lat="47.70786" lon="5.11188">
        <ele>398.48</ele>
        <time>2021-08-26T12:22:10Z</time>
      </trkpt>
      <trkpt lat="47.70786" lon="5.11189">
        <ele>398.31</ele>
        <time>2021-08-26T12:22:45Z</time>
      </trkpt>
      <trkpt lat="47.70787" lon="5.1119">
        <ele>397.73</ele>
        <time>2021-08-26T12:23:17Z</time>
      </trkpt>
      <trkpt lat="47.70785" lon="5.11191">
        <ele>397.92</ele>
        <time>2021-08-26T12:23:38Z</time>
      </trkpt>
      <trkpt lat="47.7079" lon="5.11214">
        <ele>396.64</ele>
        <time>2021-08-26T12:40:20Z</time>
      </trkpt>
      <trkpt lat="47.70784" lon="5.11213">
        <ele>399.94</ele>
        <time>2021-08-26T12:40:26Z</time>
      </trkpt>
      <trkpt lat="47.70783" lon="5.11222">
        <ele>403.32</ele>
        <time>2021-08-26T12:40:35Z</time>
      </trkpt>
      <trkpt lat="47.70783" lon="5.11215">
        <ele>406.55</ele>
        <time>2021-08-26T12:40:43Z</time>
      </trkpt>
      <trkpt lat="47.70786" lon="5.11211">
        <ele>409.58</ele>
        <time>2021-08-26T12:40:55Z</time>
      </trkpt>
      <trkpt lat="47.70788" lon="5.11204">
        <ele>411.36</ele>
        <time>2021-08-26T12:41:14Z</time>
      </trkpt>
      <trkpt lat="47.70786" lon="5.11203">
        <ele>411.53</ele>
        <time>2021-08-26T12:41:31Z</time>
      </trkpt>
      <trkpt lat="47.70781" lon="5.11202">
        <ele>411.22</ele>
        <time>2021-08-26T12:41:50Z</time>
      </trkpt>
      <trkpt lat="47.70781" lon="5.11199">
        <ele>411.24</ele>
        <time>2021-08-26T12:42:14Z</time>
      </trkpt>
      <trkpt lat="47.70782" lon="5.11199">
        <ele>411.38</ele>
        <time>2021-08-26T12:42:31Z</time>
      </trkpt>
      <trkpt lat="47.70784" lon="5.11192">
        <ele>410.92</ele>
        <time>2021-08-26T12:42:49Z</time>
      </trkpt>
      <trkpt lat="47.70781" lon="5.11198">
        <ele>411.13</ele>
        <time>2021-08-26T12:43:08Z</time>
      </trkpt>
      <trkpt lat="47.70784" lon="5.11197">
        <ele>410.78</ele>
        <time>2021-08-26T12:43:32Z</time>
      </trkpt>
      <trkpt lat="47.70782" lon="5.11192">
        <ele>410.68</ele>
        <time>2021-08-26T12:43:54Z</time>
      </trkpt>
      <trkpt lat="47.70782" lon="5.11191">
        <ele>410.33</ele>
        <time>2021-08-26T12:44:16Z</time>
      </trkpt>
      <trkpt lat="47.70781" lon="5.11194">
        <ele>410.11</ele>
        <time>2021-08-26T12:44:39Z</time>
      </trkpt>
      <trkpt lat="47.70783" lon="5.11195">
        <ele>410</ele>
        <time>2021-08-26T12:45:01Z</time>
      </trkpt>
      <trkpt lat="47.70783" lon="5.11186">
        <ele>409.78</ele>
        <time>2021-08-26T12:45:23Z</time>
      </trkpt>
      <trkpt lat="47.70783" lon="5.11185">
        <ele>409.86</ele>
        <time>2021-08-26T12:45:43Z</time>
      </trkpt>
      <trkpt lat="47.70785" lon="5.11187">
        <ele>409.57</ele>
        <time>2021-08-26T12:46:01Z</time>
      </trkpt>
      <trkpt lat="47.70784" lon="5.11185">
        <ele>409.89</ele>
        <time>2021-08-26T12:46:22Z</time>
      </trkpt>
      <trkpt lat="47.70784" lon="5.11186">
        <ele>409.74</ele>
        <time>2021-08-26T12:46:39Z</time>
      </trkpt>
      <trkpt lat="47.70779" lon="5.11187">
        <ele>409.51</ele>
        <time>2021-08-26T12:46:57Z</time>
      </trkpt>
      <trkpt lat="47.70785" lon="5.11188">
        <ele>409.11</ele>
        <time>2021-08-26T12:47:20Z</time>
      </trkpt>
      <trkpt lat="47.70784" lon="5.11187">
        <ele>409.1</ele>
        <time>2021-08-26T12:47:38Z</time>
      </trkpt>
      <trkpt lat="47.70786" lon="5.11183">
        <ele>408.43</ele>
        <time>2021-08-26T12:47:56Z</time>
      </trkpt>
      <trkpt lat="47.70786" lon="5.11189">
        <ele>408.6</ele>
        <time>2021-08-26T12:48:20Z</time>
      </trkpt>
      <trkpt lat="47.70787" lon="5.11186">
        <ele>408.56</ele>
        <time>2021-08-26T12:48:36Z</time>
      </trkpt>
      <trkpt lat="47.70789" lon="5.11182">
        <ele>408.17</ele>
        <time>2021-08-26T12:49:01Z</time>
      </trkpt>
      <trkpt lat="47.70787" lon="5.1118">
        <ele>408.03</ele>
        <time>2021-08-26T12:49:21Z</time>
      </trkpt>
      <trkpt lat="47.7079" lon="5.11176">
        <ele>408.01</ele>
        <time>2021-08-26T12:49:41Z</time>
      </trkpt>
      <trkpt lat="47.70784" lon="5.11181">
        <ele>407.66</ele>
        <time>2021-08-26T12:50:02Z</time>
      </trkpt>
      <trkpt lat="47.70784" lon="5.11177">
        <ele>407.57</ele>
        <time>2021-08-26T12:50:25Z</time>
      </trkpt>
      <trkpt lat="47.7078" lon="5.11188">
        <ele>406.81</ele>
        <time>2021-08-26T12:50:42Z</time>
      </trkpt>
      <trkpt lat="47.70787" lon="5.11196">
        <ele>406.99</ele>
        <time>2021-08-26T12:51:01Z</time>
      </trkpt>
      <trkpt lat="47.70788" lon="5.11193">
        <ele>406.73</ele>
        <time>2021-08-26T12:51:30Z</time>
      </trkpt>
      <trkpt lat="47.70785" lon="5.1119">
        <ele>406.41</ele>
        <time>2021-08-26T12:51:53Z</time>
      </trkpt>
      <trkpt lat="47.70785" lon="5.11184">
        <ele>406.47</ele>
        <time>2021-08-26T12:52:22Z</time>
      </trkpt>
      <trkpt lat="47.70785" lon="5.11186">
        <ele>406.16</ele>
        <time>2021-08-26T12:52:40Z</time>
      </trkpt>
      <trkpt lat="47.7079" lon="5.11177">
        <ele>406.03</ele>
        <time>2021-08-26T12:53:03Z</time>
      </trkpt>
      <trkpt lat="47.70788" lon="5.11186">
        <ele>406.12</ele>
        <time>2021-08-26T12:53:27Z</time>
      </trkpt>
      <trkpt lat="47.70787" lon="5.11192">
        <ele>402.36</ele>
        <time>2021-08-26T12:53:51Z</time>
      </trkpt>
      <trkpt lat="47.70787" lon="5.11192">
        <ele>407.62</ele>
        <time>2021-08-26T12:53:52Z</time>
      </trkpt>
      <trkpt lat="47.70786" lon="5.11198">
        <ele>406.81</ele>
        <time>2021-08-26T12:54:17Z</time>
      </trkpt>
      <trkpt lat="47.70784" lon="5.112">
        <ele>405.72</ele>
        <time>2021-08-26T12:54:47Z</time>
      </trkpt>
      <trkpt lat="47.70783" lon="5.11199">
        <ele>405.79</ele>
        <time>2021-08-26T12:55:11Z</time>
      </trkpt>
      <trkpt lat="47.70785" lon="5.11198">
        <ele>405.71</ele>
        <time>2021-08-26T12:55:33Z</time>
      </trkpt>
      <trkpt lat="47.70784" lon="5.11196">
        <ele>405.59</ele>
        <time>2021-08-26T12:56:00Z</time>
      </trkpt>
      <trkpt lat="47.70785" lon="5.11197">
        <ele>405.72</ele>
        <time>2021-08-26T12:56:10Z</time>
      </trkpt>
    </trkseg>
  </trk>
</gpx>